sensor_id;sensor_type;location;lat;lon;timestamp;P1;durP1;ratioP1;P2;durP2;ratioP2
17866;SDS011;9059;49.934;8.650;2022-10-22T00:00:27;4.15;;;1.10;;
17866;SDS011;9059;49.934;8.650;2022-10-22T00:01:29;2.95;;;1.10;;
17866;SDS011;9059;49.934;8.650;2022-10-22T00:02:31;5.05;;;1.17;;
17866;SDS011;9059;49.934;8.650;2022-10-22T00:03:31;1.90;;;1.05;;
17866;SDS011;9059;49.934;8.650;2022-10-22T00:04:33;3.17;;;0.95;;
17866;SDS011;9059;49.934;8.650;2022-10-22T00:05:34;4.57;;;1.10;;
17866;SDS011;9059;49.934;8.650;2022-10-22T00:06:36;3.60;;;1.00;;
17866;SDS011;9059;49.934;8.650;2022-10-22T00:07:37;4.68;;;1.05;;
17866;SDS011;9059;49.934;8.650;2022-10-22T00:08:40;2.20;;;1.10;;
17866;SDS011;9059;49.934;8.650;2022-10-22T00:09:41;5.35;;;1.33;;
17866;SDS011;9059;49.934;8.650;2022-10-22T00:10:43;8.45;;;0.98;;
17866;SDS011;9059;49.934;8.650;2022-10-22T00:11:43;2.95;;;1.13;;
17866;SDS011;9059;49.934;8.650;2022-10-22T00:12:45;5.43;;;1.40;;
17866;SDS011;9059;49.934;8.650;2022-10-22T00:13:46;3.53;;;1.17;;
17866;SDS011;9059;49.934;8.650;2022-10-22T00:14:48;6.22;;;1.10;;
17866;SDS011;9059;49.934;8.650;2022-10-22T00:15:50;2.55;;;1.20;;
17866;SDS011;9059;49.934;8.650;2022-10-22T00:16:51;4.57;;;1.10;;
17866;SDS011;9059;49.934;8.650;2022-10-22T00:17:52;5.25;;;1.15;;
17866;SDS011;9059;49.934;8.650;2022-10-22T00:18:54;2.38;;;1.00;;
17866;SDS011;9059;49.934;8.650;2022-10-22T00:19:54;4.78;;;1.40;;
17866;SDS011;9059;49.934;8.650;2022-10-22T00:20:56;8.23;;;1.25;;
17866;SDS011;9059;49.934;8.650;2022-10-22T00:21:57;6.07;;;1.05;;
17866;SDS011;9059;49.934;8.650;2022-10-22T00:22:58;5.20;;;0.95;;
17866;SDS011;9059;49.934;8.650;2022-10-22T00:24:00;4.78;;;0.93;;
17866;SDS011;9059;49.934;8.650;2022-10-22T00:25:02;2.30;;;1.25;;
17866;SDS011;9059;49.934;8.650;2022-10-22T00:26:03;3.63;;;1.10;;
17866;SDS011;9059;49.934;8.650;2022-10-22T00:27:05;6.03;;;1.27;;
17866;SDS011;9059;49.934;8.650;2022-10-22T00:28:07;1.52;;;1.10;;
17866;SDS011;9059;49.934;8.650;2022-10-22T00:29:10;2.20;;;1.08;;
17866;SDS011;9059;49.934;8.650;2022-10-22T00:30:11;1.95;;;0.80;;
17866;SDS011;9059;49.934;8.650;2022-10-22T00:31:13;1.70;;;0.90;;
17866;SDS011;9059;49.934;8.650;2022-10-22T00:32:15;1.73;;;1.00;;
17866;SDS011;9059;49.934;8.650;2022-10-22T00:33:17;3.95;;;0.93;;
17866;SDS011;9059;49.934;8.650;2022-10-22T00:34:17;1.95;;;1.05;;
17866;SDS011;9059;49.934;8.650;2022-10-22T00:35:21;3.63;;;1.05;;
17866;SDS011;9059;49.934;8.650;2022-10-22T00:36:22;1.15;;;0.60;;
17866;SDS011;9059;49.934;8.650;2022-10-22T00:37:23;8.77;;;1.08;;
17866;SDS011;9059;49.934;8.650;2022-10-22T00:38:24;5.20;;;1.13;;
17866;SDS011;9059;49.934;8.650;2022-10-22T00:39:27;4.38;;;0.88;;
17866;SDS011;9059;49.934;8.650;2022-10-22T00:40:28;1.63;;;0.90;;
17866;SDS011;9059;49.934;8.650;2022-10-22T00:41:29;3.22;;;0.90;;
17866;SDS011;9059;49.934;8.650;2022-10-22T00:42:30;1.40;;;0.80;;
17866;SDS011;9059;49.934;8.650;2022-10-22T00:43:32;6.30;;;0.90;;
17866;SDS011;9059;49.934;8.650;2022-10-22T00:46:15;1.95;;;1.35;;
17866;SDS011;9059;49.934;8.650;2022-10-22T00:47:16;11.60;;;1.10;;
17866;SDS011;9059;49.934;8.650;2022-10-22T00:48:20;9.32;;;1.30;;
17866;SDS011;9059;49.934;8.650;2022-10-22T00:49:23;6.75;;;1.17;;
17866;SDS011;9059;49.934;8.650;2022-10-22T00:50:26;4.30;;;0.88;;
17866;SDS011;9059;49.934;8.650;2022-10-22T00:51:31;2.28;;;0.80;;
17866;SDS011;9059;49.934;8.650;2022-10-22T00:52:33;1.70;;;0.77;;
17866;SDS011;9059;49.934;8.650;2022-10-22T00:53:36;2.63;;;0.85;;
17866;SDS011;9059;49.934;8.650;2022-10-22T00:54:40;2.63;;;0.80;;
17866;SDS011;9059;49.934;8.650;2022-10-22T00:55:41;2.35;;;0.90;;
17866;SDS011;9059;49.934;8.650;2022-10-22T00:56:44;3.83;;;1.10;;
17866;SDS011;9059;49.934;8.650;2022-10-22T00:57:45;2.13;;;1.00;;
17866;SDS011;9059;49.934;8.650;2022-10-22T00:58:48;7.97;;;1.00;;
17866;SDS011;9059;49.934;8.650;2022-10-22T00:59:51;3.88;;;0.95;;
17866;SDS011;9059;49.934;8.650;2022-10-22T01:00:53;3.05;;;1.00;;
17866;SDS011;9059;49.934;8.650;2022-10-22T01:01:54;2.72;;;0.75;;
17866;SDS011;9059;49.934;8.650;2022-10-22T01:02:56;8.63;;;0.80;;
17866;SDS011;9059;49.934;8.650;2022-10-22T01:03:57;1.80;;;0.80;;
17866;SDS011;9059;49.934;8.650;2022-10-22T01:04:59;3.17;;;0.77;;
17866;SDS011;9059;49.934;8.650;2022-10-22T01:06:00;1.02;;;0.80;;
17866;SDS011;9059;49.934;8.650;2022-10-22T01:07:04;1.33;;;0.55;;
17866;SDS011;9059;49.934;8.650;2022-10-22T01:08:05;4.55;;;1.00;;
17866;SDS011;9059;49.934;8.650;2022-10-22T01:09:15;3.45;;;0.82;;
17866;SDS011;9059;49.934;8.650;2022-10-22T01:10:28;1.90;;;0.68;;
17866;SDS011;9059;49.934;8.650;2022-10-22T01:11:39;1.75;;;0.73;;
17866;SDS011;9059;49.934;8.650;2022-10-22T01:12:47;2.17;;;0.95;;
17866;SDS011;9059;49.934;8.650;2022-10-22T01:13:54;4.55;;;0.90;;
17866;SDS011;9059;49.934;8.650;2022-10-22T01:15:02;4.93;;;1.00;;
17866;SDS011;9059;49.934;8.650;2022-10-22T01:16:10;2.33;;;0.80;;
17866;SDS011;9059;49.934;8.650;2022-10-22T01:17:13;2.03;;;0.90;;
17866;SDS011;9059;49.934;8.650;2022-10-22T01:18:20;2.60;;;0.80;;
17866;SDS011;9059;49.934;8.650;2022-10-22T01:19:28;4.57;;;0.85;;
17866;SDS011;9059;49.934;8.650;2022-10-22T01:20:46;1.52;;;0.63;;
17866;SDS011;9059;49.934;8.650;2022-10-22T01:22:04;5.40;;;0.70;;
17866;SDS011;9059;49.934;8.650;2022-10-22T01:23:12;5.25;;;1.17;;
17866;SDS011;9059;49.934;8.650;2022-10-22T01:24:31;2.75;;;0.80;;
17866;SDS011;9059;49.934;8.650;2022-10-22T01:25:41;4.88;;;0.82;;
17866;SDS011;9059;49.934;8.650;2022-10-22T01:26:53;2.78;;;0.50;;
17866;SDS011;9059;49.934;8.650;2022-10-22T01:28:05;7.15;;;0.95;;
17866;SDS011;9059;49.934;8.650;2022-10-22T01:29:14;1.33;;;0.60;;
17866;SDS011;9059;49.934;8.650;2022-10-22T01:30:18;3.33;;;0.70;;
17866;SDS011;9059;49.934;8.650;2022-10-22T01:31:20;3.33;;;0.80;;
17866;SDS011;9059;49.934;8.650;2022-10-22T01:32:23;1.55;;;0.55;;
17866;SDS011;9059;49.934;8.650;2022-10-22T01:33:26;5.03;;;0.88;;
17866;SDS011;9059;49.934;8.650;2022-10-22T01:34:28;4.95;;;0.57;;
17866;SDS011;9059;49.934;8.650;2022-10-22T01:35:31;2.83;;;0.50;;
17866;SDS011;9059;49.934;8.650;2022-10-22T01:36:34;3.30;;;0.60;;
17866;SDS011;9059;49.934;8.650;2022-10-22T01:37:37;3.35;;;0.60;;
17866;SDS011;9059;49.934;8.650;2022-10-22T01:38:41;2.35;;;0.60;;
17866;SDS011;9059;49.934;8.650;2022-10-22T01:39:45;1.60;;;0.65;;
17866;SDS011;9059;49.934;8.650;2022-10-22T01:40:47;2.15;;;0.63;;
17866;SDS011;9059;49.934;8.650;2022-10-22T01:41:49;3.38;;;0.50;;
17866;SDS011;9059;49.934;8.650;2022-10-22T01:42:54;4.47;;;1.00;;
17866;SDS011;9059;49.934;8.650;2022-10-22T01:43:57;0.55;;;0.40;;
17866;SDS011;9059;49.934;8.650;2022-10-22T01:44:59;5.07;;;0.77;;
17866;SDS011;9059;49.934;8.650;2022-10-22T01:46:04;3.20;;;0.68;;
17866;SDS011;9059;49.934;8.650;2022-10-22T01:47:10;0.88;;;0.50;;
17866;SDS011;9059;49.934;8.650;2022-10-22T01:48:20;1.88;;;0.70;;
17866;SDS011;9059;49.934;8.650;2022-10-22T01:49:32;1.40;;;0.50;;
17866;SDS011;9059;49.934;8.650;2022-10-22T01:50:46;1.48;;;0.70;;
17866;SDS011;9059;49.934;8.650;2022-10-22T01:51:55;1.30;;;0.40;;
17866;SDS011;9059;49.934;8.650;2022-10-22T01:53:06;2.63;;;0.70;;
17866;SDS011;9059;49.934;8.650;2022-10-22T01:54:20;1.15;;;0.70;;
17866;SDS011;9059;49.934;8.650;2022-10-22T01:55:28;1.45;;;0.47;;
17866;SDS011;9059;49.934;8.650;2022-10-22T01:56:40;1.88;;;0.68;;
17866;SDS011;9059;49.934;8.650;2022-10-22T01:57:51;1.50;;;0.82;;
17866;SDS011;9059;49.934;8.650;2022-10-22T01:58:58;4.63;;;0.70;;
17866;SDS011;9059;49.934;8.650;2022-10-22T02:00:07;1.50;;;0.85;;
17866;SDS011;9059;49.934;8.650;2022-10-22T02:01:12;4.22;;;0.50;;
17866;SDS011;9059;49.934;8.650;2022-10-22T02:02:20;1.42;;;0.60;;
17866;SDS011;9059;49.934;8.650;2022-10-22T02:03:25;1.23;;;0.63;;
17866;SDS011;9059;49.934;8.650;2022-10-22T02:04:32;0.65;;;0.38;;
17866;SDS011;9059;49.934;8.650;2022-10-22T02:05:35;2.28;;;0.60;;
17866;SDS011;9059;49.934;8.650;2022-10-22T02:06:39;4.05;;;0.60;;
17866;SDS011;9059;49.934;8.650;2022-10-22T02:07:44;3.95;;;0.57;;
17866;SDS011;9059;49.934;8.650;2022-10-22T02:08:47;2.53;;;0.50;;
17866;SDS011;9059;49.934;8.650;2022-10-22T02:09:48;3.33;;;0.50;;
17866;SDS011;9059;49.934;8.650;2022-10-22T02:10:52;1.00;;;0.50;;
17866;SDS011;9059;49.934;8.650;2022-10-22T02:11:53;4.55;;;0.80;;
17866;SDS011;9059;49.934;8.650;2022-10-22T02:12:55;4.07;;;0.70;;
17866;SDS011;9059;49.934;8.650;2022-10-22T02:13:58;1.27;;;0.70;;
17866;SDS011;9059;49.934;8.650;2022-10-22T02:15:02;2.22;;;0.50;;
17866;SDS011;9059;49.934;8.650;2022-10-22T02:16:05;2.13;;;0.73;;
17866;SDS011;9059;49.934;8.650;2022-10-22T02:17:09;0.85;;;0.60;;
17866;SDS011;9059;49.934;8.650;2022-10-22T02:18:12;0.95;;;0.50;;
17866;SDS011;9059;49.934;8.650;2022-10-22T02:19:14;1.80;;;0.45;;
17866;SDS011;9059;49.934;8.650;2022-10-22T02:20:18;4.13;;;0.75;;
17866;SDS011;9059;49.934;8.650;2022-10-22T02:21:22;1.48;;;0.57;;
17866;SDS011;9059;49.934;8.650;2022-10-22T02:22:23;0.40;;;0.38;;
17866;SDS011;9059;49.934;8.650;2022-10-22T02:23:25;1.20;;;0.40;;
17866;SDS011;9059;49.934;8.650;2022-10-22T02:24:26;1.20;;;0.30;;
17866;SDS011;9059;49.934;8.650;2022-10-22T02:25:29;4.63;;;0.60;;
17866;SDS011;9059;49.934;8.650;2022-10-22T02:26:33;2.13;;;0.40;;
17866;SDS011;9059;49.934;8.650;2022-10-22T02:27:38;1.02;;;0.50;;
17866;SDS011;9059;49.934;8.650;2022-10-22T02:28:42;1.63;;;0.50;;
17866;SDS011;9059;49.934;8.650;2022-10-22T02:29:47;3.63;;;0.88;;
17866;SDS011;9059;49.934;8.650;2022-10-22T02:30:52;3.83;;;0.55;;
17866;SDS011;9059;49.934;8.650;2022-10-22T02:31:59;2.40;;;0.40;;
17866;SDS011;9059;49.934;8.650;2022-10-22T02:33:01;0.77;;;0.50;;
17866;SDS011;9059;49.934;8.650;2022-10-22T02:34:07;1.42;;;0.47;;
17866;SDS011;9059;49.934;8.650;2022-10-22T02:35:11;1.55;;;0.65;;
17866;SDS011;9059;49.934;8.650;2022-10-22T02:36:16;3.30;;;0.40;;
17866;SDS011;9059;49.934;8.650;2022-10-22T02:37:17;2.45;;;0.40;;
17866;SDS011;9059;49.934;8.650;2022-10-22T02:38:19;6.18;;;0.60;;
17866;SDS011;9059;49.934;8.650;2022-10-22T02:39:21;1.77;;;0.40;;
17866;SDS011;9059;49.934;8.650;2022-10-22T02:40:23;0.50;;;0.30;;
17866;SDS011;9059;49.934;8.650;2022-10-22T02:41:24;1.85;;;0.40;;
17866;SDS011;9059;49.934;8.650;2022-10-22T02:42:26;1.27;;;0.40;;
17866;SDS011;9059;49.934;8.650;2022-10-22T02:43:27;1.10;;;0.50;;
17866;SDS011;9059;49.934;8.650;2022-10-22T02:44:29;2.67;;;0.52;;
17866;SDS011;9059;49.934;8.650;2022-10-22T02:45:30;2.58;;;0.80;;
17866;SDS011;9059;49.934;8.650;2022-10-22T02:46:31;3.70;;;0.47;;
17866;SDS011;9059;49.934;8.650;2022-10-22T02:47:34;1.77;;;0.43;;
17866;SDS011;9059;49.934;8.650;2022-10-22T02:48:35;0.85;;;0.30;;
17866;SDS011;9059;49.934;8.650;2022-10-22T02:49:36;0.85;;;0.47;;
17866;SDS011;9059;49.934;8.650;2022-10-22T02:50:38;1.05;;;0.50;;
17866;SDS011;9059;49.934;8.650;2022-10-22T02:51:39;2.75;;;0.45;;
17866;SDS011;9059;49.934;8.650;2022-10-22T02:52:40;1.83;;;0.50;;
17866;SDS011;9059;49.934;8.650;2022-10-22T02:53:41;1.80;;;0.45;;
17866;SDS011;9059;49.934;8.650;2022-10-22T02:54:43;0.85;;;0.43;;
17866;SDS011;9059;49.934;8.650;2022-10-22T02:55:43;0.85;;;0.60;;
17866;SDS011;9059;49.934;8.650;2022-10-22T02:56:45;2.67;;;0.80;;
17866;SDS011;9059;49.934;8.650;2022-10-22T02:57:46;1.10;;;0.35;;
17866;SDS011;9059;49.934;8.650;2022-10-22T02:58:47;3.58;;;0.45;;
17866;SDS011;9059;49.934;8.650;2022-10-22T02:59:48;1.65;;;0.40;;
17866;SDS011;9059;49.934;8.650;2022-10-22T03:00:50;0.47;;;0.43;;
17866;SDS011;9059;49.934;8.650;2022-10-22T03:01:50;1.85;;;0.60;;
17866;SDS011;9059;49.934;8.650;2022-10-22T03:02:53;0.88;;;0.40;;
17866;SDS011;9059;49.934;8.650;2022-10-22T03:03:54;2.13;;;0.50;;
17866;SDS011;9059;49.934;8.650;2022-10-22T03:04:56;1.88;;;0.40;;
17866;SDS011;9059;49.934;8.650;2022-10-22T03:05:56;1.10;;;0.50;;
17866;SDS011;9059;49.934;8.650;2022-10-22T03:06:58;1.63;;;0.50;;
17866;SDS011;9059;49.934;8.650;2022-10-22T03:07:59;6.18;;;0.90;;
17866;SDS011;9059;49.934;8.650;2022-10-22T03:09:00;2.20;;;0.82;;
17866;SDS011;9059;49.934;8.650;2022-10-22T03:10:01;4.35;;;0.82;;
17866;SDS011;9059;49.934;8.650;2022-10-22T03:11:03;4.28;;;0.70;;
17866;SDS011;9059;49.934;8.650;2022-10-22T03:12:04;2.90;;;0.57;;
17866;SDS011;9059;49.934;8.650;2022-10-22T03:13:07;2.33;;;0.63;;
17866;SDS011;9059;49.934;8.650;2022-10-22T03:14:08;0.95;;;0.50;;
17866;SDS011;9059;49.934;8.650;2022-10-22T03:15:10;3.97;;;0.43;;
17866;SDS011;9059;49.934;8.650;2022-10-22T03:16:10;0.63;;;0.38;;
17866;SDS011;9059;49.934;8.650;2022-10-22T03:17:12;2.92;;;0.65;;
17866;SDS011;9059;49.934;8.650;2022-10-22T03:18:14;0.65;;;0.25;;
17866;SDS011;9059;49.934;8.650;2022-10-22T03:19:16;0.75;;;0.57;;
17866;SDS011;9059;49.934;8.650;2022-10-22T03:20:17;1.00;;;0.47;;
17866;SDS011;9059;49.934;8.650;2022-10-22T03:21:20;2.42;;;0.88;;
17866;SDS011;9059;49.934;8.650;2022-10-22T03:22:25;2.65;;;0.40;;
17866;SDS011;9059;49.934;8.650;2022-10-22T03:23:28;4.07;;;0.60;;
17866;SDS011;9059;49.934;8.650;2022-10-22T03:24:30;2.35;;;0.65;;
17866;SDS011;9059;49.934;8.650;2022-10-22T03:25:35;1.65;;;0.45;;
17866;SDS011;9059;49.934;8.650;2022-10-22T03:26:35;0.65;;;0.50;;
17866;SDS011;9059;49.934;8.650;2022-10-22T03:27:38;1.25;;;0.25;;
17866;SDS011;9059;49.934;8.650;2022-10-22T03:28:40;1.75;;;0.50;;
17866;SDS011;9059;49.934;8.650;2022-10-22T03:29:42;0.90;;;0.40;;
17866;SDS011;9059;49.934;8.650;2022-10-22T03:30:43;1.10;;;0.50;;
17866;SDS011;9059;49.934;8.650;2022-10-22T03:31:45;3.30;;;0.73;;
17866;SDS011;9059;49.934;8.650;2022-10-22T03:32:46;2.47;;;0.40;;
17866;SDS011;9059;49.934;8.650;2022-10-22T03:33:48;1.00;;;0.32;;
17866;SDS011;9059;49.934;8.650;2022-10-22T03:34:49;3.33;;;0.50;;
17866;SDS011;9059;49.934;8.650;2022-10-22T03:35:51;4.32;;;0.60;;
17866;SDS011;9059;49.934;8.650;2022-10-22T03:36:51;2.05;;;0.40;;
17866;SDS011;9059;49.934;8.650;2022-10-22T03:37:54;3.55;;;0.47;;
17866;SDS011;9059;49.934;8.650;2022-10-22T03:38:55;5.95;;;0.63;;
17866;SDS011;9059;49.934;8.650;2022-10-22T03:39:56;1.95;;;0.50;;
17866;SDS011;9059;49.934;8.650;2022-10-22T03:40:57;1.45;;;0.60;;
17866;SDS011;9059;49.934;8.650;2022-10-22T03:41:59;3.03;;;0.60;;
17866;SDS011;9059;49.934;8.650;2022-10-22T03:42:59;2.72;;;0.40;;
17866;SDS011;9059;49.934;8.650;2022-10-22T03:44:01;1.27;;;0.43;;
17866;SDS011;9059;49.934;8.650;2022-10-22T03:45:04;0.95;;;0.43;;
17866;SDS011;9059;49.934;8.650;2022-10-22T03:46:07;6.45;;;0.50;;
17866;SDS011;9059;49.934;8.650;2022-10-22T03:47:08;2.92;;;0.40;;
17866;SDS011;9059;49.934;8.650;2022-10-22T03:48:09;1.58;;;0.40;;
17866;SDS011;9059;49.934;8.650;2022-10-22T03:49:12;6.18;;;0.68;;
17866;SDS011;9059;49.934;8.650;2022-10-22T03:50:14;0.55;;;0.50;;
17866;SDS011;9059;49.934;8.650;2022-10-22T03:51:16;0.75;;;0.50;;
17866;SDS011;9059;49.934;8.650;2022-10-22T03:52:18;0.77;;;0.60;;
17866;SDS011;9059;49.934;8.650;2022-10-22T03:53:18;1.10;;;0.40;;
17866;SDS011;9059;49.934;8.650;2022-10-22T03:54:20;3.97;;;0.60;;
17866;SDS011;9059;49.934;8.650;2022-10-22T03:55:21;10.98;;;0.70;;
17866;SDS011;9059;49.934;8.650;2022-10-22T03:56:22;1.42;;;0.50;;
17866;SDS011;9059;49.934;8.650;2022-10-22T03:57:23;0.85;;;0.40;;
17866;SDS011;9059;49.934;8.650;2022-10-22T03:58:25;1.65;;;0.43;;
17866;SDS011;9059;49.934;8.650;2022-10-22T03:59:25;1.70;;;0.68;;
17866;SDS011;9059;49.934;8.650;2022-10-22T04:00:27;1.45;;;0.35;;
17866;SDS011;9059;49.934;8.650;2022-10-22T04:01:28;1.50;;;0.50;;
17866;SDS011;9059;49.934;8.650;2022-10-22T04:02:30;1.27;;;0.40;;
17866;SDS011;9059;49.934;8.650;2022-10-22T04:03:31;0.82;;;0.43;;
17866;SDS011;9059;49.934;8.650;2022-10-22T04:04:35;4.55;;;0.60;;
17866;SDS011;9059;49.934;8.650;2022-10-22T04:05:36;1.17;;;0.40;;
17866;SDS011;9059;49.934;8.650;2022-10-22T04:06:37;2.30;;;0.60;;
17866;SDS011;9059;49.934;8.650;2022-10-22T04:07:38;3.03;;;0.57;;
17866;SDS011;9059;49.934;8.650;2022-10-22T04:08:40;2.75;;;0.35;;
17866;SDS011;9059;49.934;8.650;2022-10-22T04:09:42;0.55;;;0.40;;
17866;SDS011;9059;49.934;8.650;2022-10-22T04:10:49;1.40;;;0.40;;
17866;SDS011;9059;49.934;8.650;2022-10-22T04:11:50;2.50;;;0.70;;
17866;SDS011;9059;49.934;8.650;2022-10-22T04:12:52;4.25;;;0.63;;
17866;SDS011;9059;49.934;8.650;2022-10-22T04:13:52;0.88;;;0.30;;
17866;SDS011;9059;49.934;8.650;2022-10-22T04:14:54;1.42;;;0.47;;
17866;SDS011;9059;49.934;8.650;2022-10-22T04:15:55;1.17;;;0.50;;
17866;SDS011;9059;49.934;8.650;2022-10-22T04:16:56;4.53;;;0.50;;
17866;SDS011;9059;49.934;8.650;2022-10-22T04:17:57;1.83;;;0.60;;
17866;SDS011;9059;49.934;8.650;2022-10-22T04:18:59;1.45;;;0.40;;
17866;SDS011;9059;49.934;8.650;2022-10-22T04:20:01;2.53;;;0.57;;
17866;SDS011;9059;49.934;8.650;2022-10-22T04:21:03;1.08;;;0.45;;
17866;SDS011;9059;49.934;8.650;2022-10-22T04:22:04;2.40;;;0.38;;
17866;SDS011;9059;49.934;8.650;2022-10-22T04:23:06;2.30;;;0.50;;
17866;SDS011;9059;49.934;8.650;2022-10-22T04:24:07;2.42;;;0.60;;
17866;SDS011;9059;49.934;8.650;2022-10-22T04:25:08;0.77;;;0.40;;
17866;SDS011;9059;49.934;8.650;2022-10-22T04:26:09;2.10;;;0.40;;
17866;SDS011;9059;49.934;8.650;2022-10-22T04:27:10;0.30;;;0.30;;
17866;SDS011;9059;49.934;8.650;2022-10-22T04:28:11;1.33;;;0.40;;
17866;SDS011;9059;49.934;8.650;2022-10-22T04:29:13;1.30;;;0.40;;
17866;SDS011;9059;49.934;8.650;2022-10-22T04:30:13;1.00;;;0.50;;
17866;SDS011;9059;49.934;8.650;2022-10-22T04:31:16;0.98;;;0.30;;
17866;SDS011;9059;49.934;8.650;2022-10-22T04:32:18;4.32;;;0.63;;
17866;SDS011;9059;49.934;8.650;2022-10-22T04:33:19;3.58;;;0.60;;
17866;SDS011;9059;49.934;8.650;2022-10-22T04:34:20;1.90;;;0.45;;
17866;SDS011;9059;49.934;8.650;2022-10-22T04:35:23;0.60;;;0.50;;
17866;SDS011;9059;49.934;8.650;2022-10-22T04:36:24;1.58;;;0.40;;
17866;SDS011;9059;49.934;8.650;2022-10-22T04:37:26;1.55;;;0.45;;
17866;SDS011;9059;49.934;8.650;2022-10-22T04:38:27;3.55;;;0.43;;
17866;SDS011;9059;49.934;8.650;2022-10-22T04:39:29;2.13;;;0.50;;
17866;SDS011;9059;49.934;8.650;2022-10-22T04:40:29;2.65;;;0.55;;
17866;SDS011;9059;49.934;8.650;2022-10-22T04:41:32;2.78;;;0.30;;
17866;SDS011;9059;49.934;8.650;2022-10-22T04:42:33;1.42;;;0.30;;
17866;SDS011;9059;49.934;8.650;2022-10-22T04:43:35;2.80;;;0.60;;
17866;SDS011;9059;49.934;8.650;2022-10-22T04:44:36;0.45;;;0.32;;
17866;SDS011;9059;49.934;8.650;2022-10-22T04:45:37;4.20;;;0.50;;
17866;SDS011;9059;49.934;8.650;2022-10-22T04:46:38;1.10;;;0.50;;
17866;SDS011;9059;49.934;8.650;2022-10-22T04:47:40;2.00;;;0.52;;
17866;SDS011;9059;49.934;8.650;2022-10-22T04:48:41;2.17;;;0.43;;
17866;SDS011;9059;49.934;8.650;2022-10-22T04:49:43;0.77;;;0.40;;
17866;SDS011;9059;49.934;8.650;2022-10-22T04:50:45;0.70;;;0.35;;
17866;SDS011;9059;49.934;8.650;2022-10-22T04:51:46;2.42;;;0.70;;
17866;SDS011;9059;49.934;8.650;2022-10-22T04:52:47;1.20;;;0.40;;
17866;SDS011;9059;49.934;8.650;2022-10-22T04:53:49;0.52;;;0.40;;
17866;SDS011;9059;49.934;8.650;2022-10-22T04:54:50;3.92;;;0.60;;
17866;SDS011;9059;49.934;8.650;2022-10-22T04:55:51;1.83;;;0.50;;
17866;SDS011;9059;49.934;8.650;2022-10-22T04:56:52;2.80;;;0.70;;
17866;SDS011;9059;49.934;8.650;2022-10-22T04:57:54;2.38;;;0.63;;
17866;SDS011;9059;49.934;8.650;2022-10-22T04:58:55;2.25;;;0.50;;
17866;SDS011;9059;49.934;8.650;2022-10-22T04:59:57;3.75;;;0.40;;
17866;SDS011;9059;49.934;8.650;2022-10-22T05:00:58;2.05;;;0.73;;
17866;SDS011;9059;49.934;8.650;2022-10-22T05:01:59;1.92;;;0.55;;
17866;SDS011;9059;49.934;8.650;2022-10-22T05:03:01;4.22;;;0.50;;
17866;SDS011;9059;49.934;8.650;2022-10-22T05:04:02;0.80;;;0.32;;
17866;SDS011;9059;49.934;8.650;2022-10-22T05:05:05;4.65;;;0.40;;
17866;SDS011;9059;49.934;8.650;2022-10-22T05:06:08;2.38;;;0.50;;
17866;SDS011;9059;49.934;8.650;2022-10-22T05:07:10;1.48;;;0.43;;
17866;SDS011;9059;49.934;8.650;2022-10-22T05:08:11;0.60;;;0.30;;
17866;SDS011;9059;49.934;8.650;2022-10-22T05:09:14;0.63;;;0.43;;
17866;SDS011;9059;49.934;8.650;2022-10-22T05:10:15;3.58;;;0.50;;
17866;SDS011;9059;49.934;8.650;2022-10-22T05:11:18;1.35;;;0.75;;
17866;SDS011;9059;49.934;8.650;2022-10-22T05:12:20;1.33;;;0.32;;
17866;SDS011;9059;49.934;8.650;2022-10-22T05:13:21;0.47;;;0.30;;
17866;SDS011;9059;49.934;8.650;2022-10-22T05:14:23;1.77;;;0.50;;
17866;SDS011;9059;49.934;8.650;2022-10-22T05:15:25;0.75;;;0.40;;
17866;SDS011;9059;49.934;8.650;2022-10-22T05:16:26;1.73;;;0.60;;
17866;SDS011;9059;49.934;8.650;2022-10-22T05:17:28;2.00;;;0.40;;
17866;SDS011;9059;49.934;8.650;2022-10-22T05:18:29;1.02;;;0.40;;
17866;SDS011;9059;49.934;8.650;2022-10-22T05:19:30;0.90;;;0.30;;
17866;SDS011;9059;49.934;8.650;2022-10-22T05:20:32;2.38;;;0.40;;
17866;SDS011;9059;49.934;8.650;2022-10-22T05:21:35;0.93;;;0.50;;
17866;SDS011;9059;49.934;8.650;2022-10-22T05:22:37;1.98;;;0.40;;
17866;SDS011;9059;49.934;8.650;2022-10-22T05:23:38;0.90;;;0.50;;
17866;SDS011;9059;49.934;8.650;2022-10-22T05:24:40;1.92;;;0.50;;
17866;SDS011;9059;49.934;8.650;2022-10-22T05:25:40;3.90;;;0.40;;
17866;SDS011;9059;49.934;8.650;2022-10-22T05:26:42;0.75;;;0.40;;
17866;SDS011;9059;49.934;8.650;2022-10-22T05:27:42;0.85;;;0.50;;
17866;SDS011;9059;49.934;8.650;2022-10-22T05:28:44;2.15;;;0.40;;
17866;SDS011;9059;49.934;8.650;2022-10-22T05:29:45;4.18;;;0.47;;
17866;SDS011;9059;49.934;8.650;2022-10-22T05:30:51;0.60;;;0.38;;
17866;SDS011;9059;49.934;8.650;2022-10-22T05:31:52;2.50;;;0.38;;
17866;SDS011;9059;49.934;8.650;2022-10-22T05:32:54;0.60;;;0.40;;
17866;SDS011;9059;49.934;8.650;2022-10-22T05:33:55;1.63;;;0.57;;
17866;SDS011;9059;49.934;8.650;2022-10-22T05:34:57;2.47;;;0.40;;
17866;SDS011;9059;49.934;8.650;2022-10-22T05:35:57;1.77;;;0.32;;
17866;SDS011;9059;49.934;8.650;2022-10-22T05:37:01;3.53;;;1.05;;
17866;SDS011;9059;49.934;8.650;2022-10-22T05:38:01;2.60;;;0.50;;
17866;SDS011;9059;49.934;8.650;2022-10-22T05:39:03;0.40;;;0.38;;
17866;SDS011;9059;49.934;8.650;2022-10-22T05:40:04;1.10;;;0.30;;
17866;SDS011;9059;49.934;8.650;2022-10-22T05:41:08;1.05;;;0.40;;
17866;SDS011;9059;49.934;8.650;2022-10-22T05:42:09;3.75;;;0.50;;
17866;SDS011;9059;49.934;8.650;2022-10-22T05:43:11;4.22;;;0.70;;
17866;SDS011;9059;49.934;8.650;2022-10-22T05:44:12;2.05;;;0.40;;
17866;SDS011;9059;49.934;8.650;2022-10-22T05:45:14;2.45;;;0.50;;
17866;SDS011;9059;49.934;8.650;2022-10-22T05:46:16;3.33;;;0.55;;
17866;SDS011;9059;49.934;8.650;2022-10-22T05:47:19;6.63;;;0.40;;
17866;SDS011;9059;49.934;8.650;2022-10-22T05:48:20;1.95;;;0.40;;
17866;SDS011;9059;49.934;8.650;2022-10-22T05:49:21;0.68;;;0.40;;
17866;SDS011;9059;49.934;8.650;2022-10-22T05:50:22;0.60;;;0.43;;
17866;SDS011;9059;49.934;8.650;2022-10-22T05:51:24;0.40;;;0.30;;
17866;SDS011;9059;49.934;8.650;2022-10-22T05:52:27;0.68;;;0.20;;
17866;SDS011;9059;49.934;8.650;2022-10-22T05:53:29;3.80;;;0.47;;
17866;SDS011;9059;49.934;8.650;2022-10-22T05:54:30;1.75;;;0.47;;
17866;SDS011;9059;49.934;8.650;2022-10-22T05:55:34;2.35;;;0.50;;
17866;SDS011;9059;49.934;8.650;2022-10-22T05:56:36;1.15;;;0.40;;
17866;SDS011;9059;49.934;8.650;2022-10-22T05:57:38;1.55;;;0.50;;
17866;SDS011;9059;49.934;8.650;2022-10-22T05:58:40;2.20;;;0.40;;
17866;SDS011;9059;49.934;8.650;2022-10-22T05:59:42;3.92;;;0.30;;
17866;SDS011;9059;49.934;8.650;2022-10-22T06:00:42;0.47;;;0.40;;
17866;SDS011;9059;49.934;8.650;2022-10-22T06:01:44;1.23;;;0.40;;
17866;SDS011;9059;49.934;8.650;2022-10-22T06:02:48;0.80;;;0.47;;
17866;SDS011;9059;49.934;8.650;2022-10-22T06:03:51;4.10;;;0.47;;
17866;SDS011;9059;49.934;8.650;2022-10-22T06:04:54;1.20;;;0.30;;
17866;SDS011;9059;49.934;8.650;2022-10-22T06:05:54;1.80;;;0.43;;
17866;SDS011;9059;49.934;8.650;2022-10-22T06:06:56;0.70;;;0.30;;
17866;SDS011;9059;49.934;8.650;2022-10-22T06:07:58;0.52;;;0.30;;
17866;SDS011;9059;49.934;8.650;2022-10-22T06:09:02;1.40;;;0.40;;
17866;SDS011;9059;49.934;8.650;2022-10-22T06:10:07;5.10;;;0.50;;
17866;SDS011;9059;49.934;8.650;2022-10-22T06:11:09;1.40;;;0.32;;
17866;SDS011;9059;49.934;8.650;2022-10-22T06:12:10;1.52;;;0.38;;
17866;SDS011;9059;49.934;8.650;2022-10-22T06:13:13;0.70;;;0.20;;
17866;SDS011;9059;49.934;8.650;2022-10-22T06:14:13;0.43;;;0.20;;
17866;SDS011;9059;49.934;8.650;2022-10-22T06:15:16;0.55;;;0.38;;
17866;SDS011;9059;49.934;8.650;2022-10-22T06:16:17;3.58;;;0.30;;
17866;SDS011;9059;49.934;8.650;2022-10-22T06:17:19;6.50;;;0.60;;
17866;SDS011;9059;49.934;8.650;2022-10-22T06:18:20;5.68;;;0.30;;
17866;SDS011;9059;49.934;8.650;2022-10-22T06:19:22;3.10;;;0.70;;
17866;SDS011;9059;49.934;8.650;2022-10-22T06:20:22;8.02;;;0.50;;
17866;SDS011;9059;49.934;8.650;2022-10-22T06:21:24;0.60;;;0.30;;
17866;SDS011;9059;49.934;8.650;2022-10-22T06:22:25;0.63;;;0.20;;
17866;SDS011;9059;49.934;8.650;2022-10-22T06:23:28;1.20;;;0.30;;
17866;SDS011;9059;49.934;8.650;2022-10-22T06:24:28;5.55;;;0.57;;